Flight Track Log - Related Links

Times and Time Zones

All times are in EDT time to prevent confusion due to time zone crossing. See the SWA1810 flight status page for this flight to view local times or setup timezone preferences in your user account.

Time Position Orientation Groundspeed Altitude Reporting Facility
EDT Latitude Longitude Course Direction KTS MPH feet Rate Location/Type
Tue 11:04:00 AM 39.1333 -76.6833 211° Southwest 213 245 2,700  Level Potomac TRACON
Tue 11:05:00 AM 39.1833 -76.7500 314° West 260 299 5,500 2,100 Climbing Potomac TRACON
Tue 11:06:00 AM 39.2167 -76.8167 303° West 273 314 6,900 750 Climbing Potomac TRACON
Tue 11:07:00 AM 39.2167 -76.9167 270° West 271 312 7,000 650 Climbing Potomac TRACON
Tue 11:08:00 AM 39.2167 -77.0167 270° West 268 308 8,200 2,644 Climbing Potomac TRACON
Tue 11:09:00 AM 39.0768 -77.2496 211° Southwest  Level FlightAware Approximate
Tue 11:10:22 AM 39.1358 -77.2211 243° Southwest 284 327 15,900  Level Washington Center
Tue 11:11:21 AM 39.0925 -77.3325 243° Southwest 316 364 19,000 3,277 Climbing Washington Center
Tue 11:12:21 AM 39.0739 -77.4658 260° West 349 402 22,400 3,025 Climbing Washington Center
Tue 11:13:22 AM 39.0575 -77.5858 260° West 372 428 25,100 2,628 Climbing Washington Center
Tue 11:14:22 AM 39.0339 -77.7428 259° West 401 461 27,700 2,400 Climbing Washington Center
Tue 11:15:22 AM 39.0147 -77.8706 259° West 412 474 29,900 1,150 Climbing Washington Center
Tue 11:16:22 AM 38.9911 -78.0167 258° West 412 474 30,000 50 Climbing Washington Center
Tue 11:17:21 AM 38.9694 -78.1575 259° West 412 474 30,000  Level Washington Center
Tue 11:18:21 AM 38.9622 -78.2986 266° West 407 468 30,000  Level Washington Center
Tue 11:19:22 AM 38.9672 -78.4403 273° West 402 463 30,000  Level Washington Center
Tue 11:20:22 AM 38.9722 -78.5819 273° West 402 463 30,000  Level Washington Center
Tue 11:21:22 AM 38.9767 -78.7292 272° West 402 463 30,000  Level Washington Center
Tue 11:22:22 AM 38.9792 -78.8708 271° West 402 463 30,000  Level Washington Center
Tue 11:23:21 AM 38.9836 -79.0097 272° West 402 463 30,000  Level Washington Center
Tue 11:24:22 AM 38.9878 -79.1517 272° West 402 463 30,000  Level Washington Center
Tue 11:25:22 AM 38.9922 -79.2853 272° West 402 463 30,000  Level Washington Center
Tue 11:26:22 AM 38.9942 -79.4244 271° West 397 457 30,000 555 Level Washington Center
Tue 11:27:21 AM 38.9981 -79.5633 272° West 397 457 31,100 1,000 Climbing Washington Center
Tue 11:28:22 AM 38.9997 -79.6997 271° West 397 457 32,000 450 Climbing Washington Center
Tue 11:29:21 AM 39.0008 -79.8442 271° West 383 441 32,000  Level Washington Center
Tue 11:31:12 AM 39.0039 -80.0722 271° West 368 423 32,000  Level Indianapolis Center
Tue 11:32:14 AM 39.0061 -80.2011 271° West 365 420 32,000  Level Indianapolis Center
Tue 11:33:15 AM 39.0072 -80.3317 271° West 364 419 32,000  Level Indianapolis Center
Tue 11:34:17 AM 39.0103 -80.4619 272° West 365 420 32,000  Level Indianapolis Center
Tue 11:35:19 AM 39.0111 -80.5917 271° West 365 420 32,000  Level Indianapolis Center
Tue 11:36:20 AM 39.0133 -80.7439 271° West 358 412 32,000 -488 Level Indianapolis Center
Tue 11:37:22 AM 39.0353 -80.8639 283° West 355 409 31,000 -1,463 Descending Indianapolis Center
Tue 11:38:23 AM 39.0786 -80.9706 298° West 341 392 29,000 -2,195 Descending Indianapolis Center
Tue 11:39:25 AM 39.1258 -81.0831 298° West 356 410 26,500 -2,371 Descending Indianapolis Center
Tue 11:40:27 AM 39.1697 -81.1997 296° West 364 419 24,100 -2,049 Descending Indianapolis Center
Tue 11:41:28 AM 39.2142 -81.3211 295° West 374 430 22,300 -1,805 Descending Indianapolis Center
Tue 11:42:30 AM 39.2672 -81.4642 296° West 372 428 20,400 -1,171 Descending Indianapolis Center
Tue 11:43:31 AM 39.3117 -81.5844 296° West 373 429 19,900 -488 Descending Indianapolis Center
Tue 11:44:33 AM 39.3556 -81.7033 296° West 370 426 19,400 -484 Descending Indianapolis Center
Tue 11:45:35 AM 39.3992 -81.8219 295° West 368 423 18,900 -634 Descending Indianapolis Center
Tue 11:46:36 AM 39.4428 -81.9411 295° West 369 425 18,100 -927 Descending Indianapolis Center
Tue 11:47:38 AM 39.4842 -82.0564 295° West 358 412 17,000 -1,575 Descending Indianapolis Center
Tue 11:47:56 AM 39.5000 -82.0997 295° West 349 402 16,000 -2,516 Descending Indianapolis Center
Tue 11:48:40 AM 39.5283 -82.1783 295° West 345 397 14,400 -2,361 Descending Indianapolis Center
Tue 11:48:57 AM 39.5428 -82.2203 294° West 338 389 13,600 -2,066 Descending Indianapolis Center
Tue 11:49:41 AM 39.5681 -82.2864 296° West 332 382 12,300 -1,701 Descending Indianapolis Center
Tue 11:50:04 AM 39.5861 -82.3331 297° West 324 373 11,700 -1,154 Descending Indianapolis Center
Tue 11:50:59 AM 39.6219 -82.4261 297° West 311 358 10,800 -960 Descending Indianapolis Center
Tue 11:51:44 AM 39.6467 -82.4892 297° West 309 356 10,100 -787 Descending Indianapolis Center
Tue 11:52:00 AM 39.6597 -82.5247 296° West 310 357 10,000 -97 Descending Indianapolis Center
Tue 11:52:46 AM 39.6864 -82.5903 298° West 311 358 10,000  Level Indianapolis Center
Tue 11:53:01 AM 39.6992 -82.6239 296° West 308 354 10,000 -871 Level Indianapolis Center
Tue 11:53:48 AM 39.7233 -82.6853 297° West 298 343 9,100 -1,455 Descending Indianapolis Center
Tue 11:54:07 AM 39.7406 -82.7286 297° West 275 316 8,400 -1,672 Descending Indianapolis Center
Tue 11:54:49 AM 39.7625 -82.7903 295° West 279 321 7,400 -1,377 Descending Indianapolis Center
Tue 11:55:08 AM 39.7722 -82.8161 296° West 270 311 7,000 -1,355 Descending Indianapolis Center
Tue 11:55:51 AM 39.7969 -82.8767 298° West 269 310 6,000 -1,082 Descending Indianapolis Center
Tue 11:56:09 AM 39.8083 -82.9017 301° West 262 302 5,900 -492 Descending Indianapolis Center
Tue 11:56:52 AM 39.8364 -82.9478 308° West 248 285 5,500 -590 Descending Indianapolis Center
Tue 11:57:10 AM 39.8478 -82.9686 305° West 216 249 5,300 -484 Descending Indianapolis Center
Tue 11:57:54 AM 39.8714 -83.0103 306° West 222 255 5,000 -295 Descending Indianapolis Center
Tue 11:58:11 AM 39.8814 -83.0294 304° West 207 238 5,000  Level Indianapolis Center
Tue 11:59:06 AM 39.9297 -83.0569 336° Northwest 217 250 5,000 -283 Level Indianapolis Center
Tue 11:59:57 AM 39.9711 -83.0650 352° North 204 235 4,500 -1,221 Descending Indianapolis Center
Tue 12:00:59 PM 40.0025 -83.0097 53° Northeast 200 230 2,700 -1,415 Descending Indianapolis Center
Tue 12:02:00 PM 39.9978 -82.9511 96° East 172 198 1,600 -780 Descending Indianapolis Center
Tue 12:03:02 PM 39.9936 -82.8983 96° East 161 185 1,100 -484 Descending Indianapolis Center

Login

Don't have an account? Register now (free) for customized features, flight alerts, and more!